sensor_id;sensor_type;location;lat;lon;timestamp;P1;durP1;ratioP1;P2;durP2;ratioP2
62911;SDS011;49111;51.028;4.218;2022-11-23T06:48:08;10.65;;;2.75;;
62911;SDS011;49111;51.028;4.218;2022-11-23T06:50:39;7.80;;;2.30;;
62911;SDS011;49111;51.028;4.218;2022-11-23T06:53:05;11.95;;;2.90;;
62911;SDS011;49111;51.028;4.218;2022-11-23T06:55:40;7.80;;;3.03;;
62911;SDS011;49111;51.028;4.218;2022-11-23T06:58:07;9.13;;;2.30;;
62911;SDS011;49111;51.028;4.218;2022-11-23T07:00:33;9.70;;;2.70;;
62911;SDS011;49111;51.028;4.218;2022-11-23T07:03:01;10.05;;;3.42;;
62911;SDS011;49111;51.028;4.218;2022-11-23T07:05:30;11.32;;;2.67;;
62911;SDS011;49111;51.028;4.218;2022-11-23T07:07:56;7.88;;;2.88;;
62911;SDS011;49111;51.028;4.218;2022-11-23T07:10:25;9.75;;;2.47;;
62911;SDS011;49111;51.028;4.218;2022-11-23T07:12:55;10.00;;;3.30;;
62911;SDS011;49111;51.028;4.218;2022-11-23T07:15:32;12.70;;;4.30;;
62911;SDS011;49111;51.028;4.218;2022-11-23T07:17:59;8.88;;;4.00;;
62911;SDS011;49111;51.028;4.218;2022-11-23T07:20:25;12.23;;;2.97;;
62911;SDS011;49111;51.028;4.218;2022-11-23T07:22:58;11.23;;;3.75;;
62911;SDS011;49111;51.028;4.218;2022-11-23T07:25:25;8.75;;;3.38;;
62911;SDS011;49111;51.028;4.218;2022-11-23T07:27:55;15.98;;;4.15;;
62911;SDS011;49111;51.028;4.218;2022-11-23T07:30:23;10.95;;;3.50;;
62911;SDS011;49111;51.028;4.218;2022-11-23T07:32:50;11.75;;;2.72;;
62911;SDS011;49111;51.028;4.218;2022-11-23T07:35:17;5.47;;;2.22;;
62911;SDS011;49111;51.028;4.218;2022-11-23T07:37:44;11.82;;;3.45;;
62911;SDS011;49111;51.028;4.218;2022-11-23T07:40:10;10.95;;;2.72;;
62911;SDS011;49111;51.028;4.218;2022-11-23T07:42:36;11.90;;;3.30;;
62911;SDS011;49111;51.028;4.218;2022-11-23T07:45:03;16.45;;;3.90;;
62911;SDS011;49111;51.028;4.218;2022-11-23T07:47:30;12.27;;;3.45;;
62911;SDS011;49111;51.028;4.218;2022-11-23T07:49:55;9.52;;;3.00;;
62911;SDS011;49111;51.028;4.218;2022-11-23T07:52:21;9.65;;;2.42;;
62911;SDS011;49111;51.028;4.218;2022-11-23T07:54:47;11.88;;;3.38;;
62911;SDS011;49111;51.028;4.218;2022-11-23T07:57:13;10.48;;;2.60;;
62911;SDS011;49111;51.028;4.218;2022-11-23T07:59:39;11.35;;;3.33;;
62911;SDS011;49111;51.028;4.218;2022-11-23T08:02:05;9.70;;;3.10;;
62911;SDS011;49111;51.028;4.218;2022-11-23T08:04:31;6.90;;;3.33;;
62911;SDS011;49111;51.028;4.218;2022-11-23T08:06:56;10.15;;;3.58;;
62911;SDS011;49111;51.028;4.218;2022-11-23T08:09:22;11.75;;;3.08;;
62911;SDS011;49111;51.028;4.218;2022-11-23T08:11:48;5.60;;;2.58;;
62911;SDS011;49111;51.028;4.218;2022-11-23T08:14:14;11.60;;;4.18;;
62911;SDS011;49111;51.028;4.218;2022-11-23T08:16:39;8.52;;;2.88;;
62911;SDS011;49111;51.028;4.218;2022-11-23T08:19:05;10.30;;;2.83;;
62911;SDS011;49111;51.028;4.218;2022-11-23T08:21:31;9.70;;;2.70;;
62911;SDS011;49111;51.028;4.218;2022-11-23T08:23:57;9.85;;;3.00;;
62911;SDS011;49111;51.028;4.218;2022-11-23T08:26:22;12.40;;;3.47;;
62911;SDS011;49111;51.028;4.218;2022-11-23T08:28:48;12.73;;;3.63;;
62911;SDS011;49111;51.028;4.218;2022-11-23T08:31:14;10.30;;;2.60;;
62911;SDS011;49111;51.028;4.218;2022-11-23T08:33:40;7.57;;;2.40;;
62911;SDS011;49111;51.028;4.218;2022-11-23T08:36:06;5.88;;;2.42;;
62911;SDS011;49111;51.028;4.218;2022-11-23T08:38:39;14.32;;;3.80;;
62911;SDS011;49111;51.028;4.218;2022-11-23T08:47:07;9.65;;;3.63;;
62911;SDS011;49111;51.028;4.218;2022-11-23T08:49:33;12.65;;;3.22;;
62911;SDS011;49111;51.028;4.218;2022-11-23T08:51:59;13.45;;;4.10;;
62911;SDS011;49111;51.028;4.218;2022-11-23T08:54:25;7.28;;;2.47;;
62911;SDS011;49111;51.028;4.218;2022-11-23T08:56:50;13.10;;;3.00;;
62911;SDS011;49111;51.028;4.218;2022-11-23T08:59:16;15.65;;;2.97;;
62911;SDS011;49111;51.028;4.218;2022-11-23T09:01:43;9.65;;;2.92;;
62911;SDS011;49111;51.028;4.218;2022-11-23T09:04:09;9.80;;;2.65;;
62911;SDS011;49111;51.028;4.218;2022-11-23T09:06:35;9.60;;;3.70;;
62911;SDS011;49111;51.028;4.218;2022-11-23T09:09:01;8.10;;;3.00;;
62911;SDS011;49111;51.028;4.218;2022-11-23T09:11:27;9.20;;;3.95;;
62911;SDS011;49111;51.028;4.218;2022-11-23T09:13:53;12.50;;;4.75;;
62911;SDS011;49111;51.028;4.218;2022-11-23T09:16:19;8.35;;;2.92;;
62911;SDS011;49111;51.028;4.218;2022-11-23T09:18:45;10.52;;;3.95;;
62911;SDS011;49111;51.028;4.218;2022-11-23T09:21:11;6.93;;;3.47;;
62911;SDS011;49111;51.028;4.218;2022-11-23T09:23:36;13.52;;;4.40;;
62911;SDS011;49111;51.028;4.218;2022-11-23T09:26:03;6.32;;;2.72;;
62911;SDS011;49111;51.028;4.218;2022-11-23T09:28:31;11.10;;;3.28;;
62911;SDS011;49111;51.028;4.218;2022-11-23T09:30:57;8.75;;;3.03;;
62911;SDS011;49111;51.028;4.218;2022-11-23T09:33:27;9.20;;;2.40;;
62911;SDS011;49111;51.028;4.218;2022-11-23T09:35:56;6.07;;;2.65;;
62911;SDS011;49111;51.028;4.218;2022-11-23T09:38:24;8.20;;;3.22;;
62911;SDS011;49111;51.028;4.218;2022-11-23T09:40:51;8.02;;;2.30;;
62911;SDS011;49111;51.028;4.218;2022-11-23T09:46:10;6.93;;;2.83;;
62911;SDS011;49111;51.028;4.218;2022-11-23T09:51:28;10.80;;;2.58;;
62911;SDS011;49111;51.028;4.218;2022-11-23T09:53:54;8.73;;;2.53;;
62911;SDS011;49111;51.028;4.218;2022-11-23T09:56:28;3.85;;;2.15;;
62911;SDS011;49111;51.028;4.218;2022-11-23T09:58:58;7.60;;;2.88;;
62911;SDS011;49111;51.028;4.218;2022-11-23T10:01:30;6.07;;;2.30;;
62911;SDS011;49111;51.028;4.218;2022-11-23T10:03:55;7.55;;;2.42;;
62911;SDS011;49111;51.028;4.218;2022-11-23T10:06:33;8.45;;;2.40;;
62911;SDS011;49111;51.028;4.218;2022-11-23T10:14:45;6.18;;;2.38;;
62911;SDS011;49111;51.028;4.218;2022-11-23T10:17:22;5.63;;;2.10;;
62911;SDS011;49111;51.028;4.218;2022-11-23T10:20:35;6.85;;;2.00;;
62911;SDS011;49111;51.028;4.218;2022-11-23T10:23:12;10.02;;;2.42;;
62911;SDS011;49111;51.028;4.218;2022-11-23T10:25:47;4.80;;;2.53;;
62911;SDS011;49111;51.028;4.218;2022-11-23T10:32:59;6.68;;;2.20;;
62911;SDS011;49111;51.028;4.218;2022-11-23T10:35:37;6.20;;;2.00;;
62911;SDS011;49111;51.028;4.218;2022-11-23T10:38:10;4.70;;;2.22;;
62911;SDS011;49111;51.028;4.218;2022-11-23T10:40:37;10.25;;;1.75;;
62911;SDS011;49111;51.028;4.218;2022-11-23T10:43:17;6.00;;;2.60;;
62911;SDS011;49111;51.028;4.218;2022-11-23T10:45:47;4.63;;;1.95;;
62911;SDS011;49111;51.028;4.218;2022-11-23T10:48:17;10.20;;;1.80;;
62911;SDS011;49111;51.028;4.218;2022-11-23T10:54:00;5.47;;;1.98;;
62911;SDS011;49111;51.028;4.218;2022-11-23T10:56:28;9.73;;;2.80;;
62911;SDS011;49111;51.028;4.218;2022-11-23T10:58:54;5.40;;;2.15;;
62911;SDS011;49111;51.028;4.218;2022-11-23T11:01:24;4.88;;;2.28;;
62911;SDS011;49111;51.028;4.218;2022-11-23T11:03:52;6.10;;;2.63;;
62911;SDS011;49111;51.028;4.218;2022-11-23T11:06:27;4.85;;;2.20;;
62911;SDS011;49111;51.028;4.218;2022-11-23T11:08:57;5.22;;;2.00;;
62911;SDS011;49111;51.028;4.218;2022-11-23T11:11:26;4.10;;;1.70;;
62911;SDS011;49111;51.028;4.218;2022-11-23T11:14:04;5.40;;;2.13;;
62911;SDS011;49111;51.028;4.218;2022-11-23T11:16:45;8.60;;;1.92;;
62911;SDS011;49111;51.028;4.218;2022-11-23T11:19:27;6.82;;;2.22;;
62911;SDS011;49111;51.028;4.218;2022-11-23T11:21:57;6.30;;;2.08;;
62911;SDS011;49111;51.028;4.218;2022-11-23T11:24:32;6.45;;;2.53;;
62911;SDS011;49111;51.028;4.218;2022-11-23T11:27:06;3.25;;;1.70;;
62911;SDS011;49111;51.028;4.218;2022-11-23T11:29:38;7.75;;;1.83;;
62911;SDS011;49111;51.028;4.218;2022-11-23T11:34:52;3.45;;;1.38;;
62911;SDS011;49111;51.028;4.218;2022-11-23T11:37:45;7.60;;;2.10;;
62911;SDS011;49111;51.028;4.218;2022-11-23T11:40:26;5.28;;;2.10;;
62911;SDS011;49111;51.028;4.218;2022-11-23T11:43:12;6.85;;;1.95;;
62911;SDS011;49111;51.028;4.218;2022-11-23T11:45:49;5.63;;;2.42;;
62911;SDS011;49111;51.028;4.218;2022-11-23T11:48:26;7.68;;;2.30;;
62911;SDS011;49111;51.028;4.218;2022-11-23T11:51:02;8.52;;;2.47;;
62911;SDS011;49111;51.028;4.218;2022-11-23T11:53:44;5.28;;;1.75;;
62911;SDS011;49111;51.028;4.218;2022-11-23T12:01:56;5.82;;;2.75;;
62911;SDS011;49111;51.028;4.218;2022-11-23T12:04:36;6.00;;;2.05;;
62911;SDS011;49111;51.028;4.218;2022-11-23T12:07:21;8.25;;;2.78;;
62911;SDS011;49111;51.028;4.218;2022-11-23T12:12:41;6.68;;;2.45;;
62911;SDS011;49111;51.028;4.218;2022-11-23T12:15:17;7.80;;;1.95;;
62911;SDS011;49111;51.028;4.218;2022-11-23T12:17:53;5.45;;;1.95;;
62911;SDS011;49111;51.028;4.218;2022-11-23T12:31:39;4.30;;;2.20;;
62911;SDS011;49111;51.028;4.218;2022-11-23T12:42:48;4.78;;;1.65;;
62911;SDS011;49111;51.028;4.218;2022-11-23T12:45:26;4.50;;;1.77;;
62911;SDS011;49111;51.028;4.218;2022-11-23T12:58:28;4.20;;;1.58;;
62911;SDS011;49111;51.028;4.218;2022-11-23T13:06:15;5.03;;;2.22;;
62911;SDS011;49111;51.028;4.218;2022-11-23T13:14:50;5.40;;;1.88;;
62911;SDS011;49111;51.028;4.218;2022-11-23T13:17:28;3.72;;;1.65;;
62911;SDS011;49111;51.028;4.218;2022-11-23T13:20:55;3.45;;;1.77;;
62911;SDS011;49111;51.028;4.218;2022-11-23T13:22:51;8.02;;;1.70;;
62911;SDS011;49111;51.028;4.218;2022-11-23T13:25:22;4.50;;;2.40;;
62911;SDS011;49111;51.028;4.218;2022-11-23T13:40:26;4.05;;;1.63;;
62911;SDS011;49111;51.028;4.218;2022-11-23T13:42:58;4.32;;;1.80;;
62911;SDS011;49111;51.028;4.218;2022-11-23T13:45:42;4.07;;;1.50;;
62911;SDS011;49111;51.028;4.218;2022-11-23T13:50:34;2.72;;;1.70;;
62911;SDS011;49111;51.028;4.218;2022-11-23T13:53:40;4.78;;;2.22;;
62911;SDS011;49111;51.028;4.218;2022-11-23T14:04:43;3.00;;;1.50;;
62911;SDS011;49111;51.028;4.218;2022-11-23T14:07:23;3.92;;;2.20;;
62911;SDS011;49111;51.028;4.218;2022-11-23T14:09:54;5.45;;;1.83;;
62911;SDS011;49111;51.028;4.218;2022-11-23T14:15:21;4.78;;;2.05;;
62911;SDS011;49111;51.028;4.218;2022-11-23T14:31:43;3.50;;;1.90;;
62911;SDS011;49111;51.028;4.218;2022-11-23T14:34:32;6.00;;;1.75;;
62911;SDS011;49111;51.028;4.218;2022-11-23T14:37:30;4.07;;;2.10;;
62911;SDS011;49111;51.028;4.218;2022-11-23T14:40:20;4.63;;;1.95;;
62911;SDS011;49111;51.028;4.218;2022-11-23T14:42:54;3.72;;;1.85;;
62911;SDS011;49111;51.028;4.218;2022-11-23T14:45:22;2.90;;;1.80;;
62911;SDS011;49111;51.028;4.218;2022-11-23T14:47:52;6.10;;;1.50;;
62911;SDS011;49111;51.028;4.218;2022-11-23T14:50:25;3.35;;;2.10;;
62911;SDS011;49111;51.028;4.218;2022-11-23T14:52:55;3.88;;;1.85;;
62911;SDS011;49111;51.028;4.218;2022-11-23T14:55:27;3.35;;;1.92;;
62911;SDS011;49111;51.028;4.218;2022-11-23T14:57:56;3.83;;;2.25;;
62911;SDS011;49111;51.028;4.218;2022-11-23T15:02:58;3.83;;;1.95;;
62911;SDS011;49111;51.028;4.218;2022-11-23T15:05:32;3.90;;;1.60;;
62911;SDS011;49111;51.028;4.218;2022-11-23T15:13:41;4.40;;;2.00;;
62911;SDS011;49111;51.028;4.218;2022-11-23T15:16:12;3.20;;;1.92;;
62911;SDS011;49111;51.028;4.218;2022-11-23T15:18:40;3.95;;;2.03;;
62911;SDS011;49111;51.028;4.218;2022-11-23T15:21:13;4.40;;;1.98;;
62911;SDS011;49111;51.028;4.218;2022-11-23T15:23:44;3.50;;;2.35;;
62911;SDS011;49111;51.028;4.218;2022-11-23T15:26:19;6.05;;;2.00;;
62911;SDS011;49111;51.028;4.218;2022-11-23T15:28:46;6.63;;;2.20;;
62911;SDS011;49111;51.028;4.218;2022-11-23T15:31:32;3.58;;;1.85;;
62911;SDS011;49111;51.028;4.218;2022-11-23T15:34:01;3.80;;;2.00;;
62911;SDS011;49111;51.028;4.218;2022-11-23T15:36:31;3.53;;;2.13;;
62911;SDS011;49111;51.028;4.218;2022-11-23T15:39:03;4.65;;;2.60;;
62911;SDS011;49111;51.028;4.218;2022-11-23T15:41:33;5.38;;;2.35;;
62911;SDS011;49111;51.028;4.218;2022-11-23T15:44:13;4.53;;;2.42;;
62911;SDS011;49111;51.028;4.218;2022-11-23T15:46:43;4.45;;;2.70;;
62911;SDS011;49111;51.028;4.218;2022-11-23T15:49:12;4.60;;;2.45;;
62911;SDS011;49111;51.028;4.218;2022-11-23T15:51:39;4.15;;;2.63;;
62911;SDS011;49111;51.028;4.218;2022-11-23T15:54:13;5.40;;;2.97;;
62911;SDS011;49111;51.028;4.218;2022-11-23T15:56:45;6.15;;;2.25;;
62911;SDS011;49111;51.028;4.218;2022-11-23T16:01:50;8.48;;;2.95;;
62911;SDS011;49111;51.028;4.218;2022-11-23T16:04:31;5.63;;;2.60;;
62911;SDS011;49111;51.028;4.218;2022-11-23T16:09:46;10.10;;;2.97;;
62911;SDS011;49111;51.028;4.218;2022-11-23T16:12:44;4.80;;;2.53;;
62911;SDS011;49111;51.028;4.218;2022-11-23T16:18:05;6.18;;;2.80;;
62911;SDS011;49111;51.028;4.218;2022-11-23T16:20:59;6.88;;;3.65;;
62911;SDS011;49111;51.028;4.218;2022-11-23T16:23:42;6.43;;;3.92;;
62911;SDS011;49111;51.028;4.218;2022-11-23T16:26:36;7.03;;;3.10;;
62911;SDS011;49111;51.028;4.218;2022-11-23T16:29:01;5.65;;;3.05;;
62911;SDS011;49111;51.028;4.218;2022-11-23T16:31:40;5.15;;;2.70;;
62911;SDS011;49111;51.028;4.218;2022-11-23T16:34:16;5.88;;;3.08;;
62911;SDS011;49111;51.028;4.218;2022-11-23T16:36:43;6.47;;;3.38;;
62911;SDS011;49111;51.028;4.218;2022-11-23T16:39:09;5.35;;;3.10;;
62911;SDS011;49111;51.028;4.218;2022-11-23T16:41:36;8.95;;;3.10;;
62911;SDS011;49111;51.028;4.218;2022-11-23T16:44:01;4.18;;;2.92;;
62911;SDS011;49111;51.028;4.218;2022-11-23T16:46:27;6.85;;;2.72;;
62911;SDS011;49111;51.028;4.218;2022-11-23T16:48:53;6.22;;;2.72;;
62911;SDS011;49111;51.028;4.218;2022-11-23T16:51:21;5.15;;;2.85;;
62911;SDS011;49111;51.028;4.218;2022-11-23T16:53:47;6.10;;;3.55;;
62911;SDS011;49111;51.028;4.218;2022-11-23T16:56:23;6.85;;;3.20;;
62911;SDS011;49111;51.028;4.218;2022-11-23T16:58:51;8.07;;;4.28;;
62911;SDS011;49111;51.028;4.218;2022-11-23T17:01:19;10.80;;;4.15;;
62911;SDS011;49111;51.028;4.218;2022-11-23T17:03:50;14.82;;;5.03;;
62911;SDS011;49111;51.028;4.218;2022-11-23T17:06:17;9.10;;;5.80;;
62911;SDS011;49111;51.028;4.218;2022-11-23T17:08:47;10.32;;;6.65;;
62911;SDS011;49111;51.028;4.218;2022-11-23T17:11:14;13.23;;;7.18;;
62911;SDS011;49111;51.028;4.218;2022-11-23T17:13:51;12.80;;;5.90;;
62911;SDS011;49111;51.028;4.218;2022-11-23T17:16:20;12.98;;;6.07;;
62911;SDS011;49111;51.028;4.218;2022-11-23T17:18:48;12.02;;;5.97;;
62911;SDS011;49111;51.028;4.218;2022-11-23T17:21:14;12.45;;;7.68;;
62911;SDS011;49111;51.028;4.218;2022-11-23T17:23:40;10.20;;;4.32;;
62911;SDS011;49111;51.028;4.218;2022-11-23T17:26:28;9.35;;;5.78;;
62911;SDS011;49111;51.028;4.218;2022-11-23T17:29:02;14.00;;;4.25;;
62911;SDS011;49111;51.028;4.218;2022-11-23T17:31:31;9.18;;;4.93;;
62911;SDS011;49111;51.028;4.218;2022-11-23T17:33:57;6.78;;;3.85;;
62911;SDS011;49111;51.028;4.218;2022-11-23T17:36:23;10.02;;;3.70;;
62911;SDS011;49111;51.028;4.218;2022-11-23T17:38:50;7.95;;;4.38;;
62911;SDS011;49111;51.028;4.218;2022-11-23T17:41:16;11.57;;;4.30;;
62911;SDS011;49111;51.028;4.218;2022-11-23T17:43:42;10.93;;;4.20;;
62911;SDS011;49111;51.028;4.218;2022-11-23T17:46:12;12.32;;;4.75;;
62911;SDS011;49111;51.028;4.218;2022-11-23T17:48:41;11.63;;;4.03;;
62911;SDS011;49111;51.028;4.218;2022-11-23T17:51:08;7.70;;;3.90;;
62911;SDS011;49111;51.028;4.218;2022-11-23T17:53:36;7.13;;;3.85;;
62911;SDS011;49111;51.028;4.218;2022-11-23T17:56:02;12.68;;;4.85;;
62911;SDS011;49111;51.028;4.218;2022-11-23T17:58:29;7.68;;;4.10;;
62911;SDS011;49111;51.028;4.218;2022-11-23T18:00:55;10.88;;;4.07;;
62911;SDS011;49111;51.028;4.218;2022-11-23T18:03:20;13.43;;;4.13;;
62911;SDS011;49111;51.028;4.218;2022-11-23T18:05:46;12.32;;;4.80;;
62911;SDS011;49111;51.028;4.218;2022-11-23T18:08:12;11.25;;;4.43;;
62911;SDS011;49111;51.028;4.218;2022-11-23T18:10:37;7.88;;;4.13;;
62911;SDS011;49111;51.028;4.218;2022-11-23T18:13:03;13.68;;;5.50;;
62911;SDS011;49111;51.028;4.218;2022-11-23T18:15:29;14.55;;;5.90;;
62911;SDS011;49111;51.028;4.218;2022-11-23T18:17:55;18.08;;;6.28;;
62911;SDS011;49111;51.028;4.218;2022-11-23T18:20:21;15.00;;;4.40;;
62911;SDS011;49111;51.028;4.218;2022-11-23T18:22:46;12.25;;;5.10;;
62911;SDS011;49111;51.028;4.218;2022-11-23T18:25:12;15.27;;;4.20;;
62911;SDS011;49111;51.028;4.218;2022-11-23T18:27:38;10.43;;;3.95;;
62911;SDS011;49111;51.028;4.218;2022-11-23T18:30:04;13.20;;;3.67;;
62911;SDS011;49111;51.028;4.218;2022-11-23T18:32:30;10.85;;;5.00;;
62911;SDS011;49111;51.028;4.218;2022-11-23T18:34:56;16.02;;;4.55;;
62911;SDS011;49111;51.028;4.218;2022-11-23T18:37:22;14.10;;;4.68;;
62911;SDS011;49111;51.028;4.218;2022-11-23T18:39:47;16.25;;;5.40;;
62911;SDS011;49111;51.028;4.218;2022-11-23T18:42:13;14.98;;;4.82;;
62911;SDS011;49111;51.028;4.218;2022-11-23T18:44:39;13.15;;;4.32;;
62911;SDS011;49111;51.028;4.218;2022-11-23T18:47:05;16.98;;;5.18;;
62911;SDS011;49111;51.028;4.218;2022-11-23T18:49:30;15.63;;;5.00;;
62911;SDS011;49111;51.028;4.218;2022-11-23T18:51:56;11.68;;;4.30;;
62911;SDS011;49111;51.028;4.218;2022-11-23T18:54:22;18.65;;;4.53;;
62911;SDS011;49111;51.028;4.218;2022-11-23T18:56:48;12.10;;;4.57;;
62911;SDS011;49111;51.028;4.218;2022-11-23T18:59:14;15.10;;;4.40;;
62911;SDS011;49111;51.028;4.218;2022-11-23T19:01:40;14.27;;;3.72;;
62911;SDS011;49111;51.028;4.218;2022-11-23T19:04:06;14.88;;;3.92;;
62911;SDS011;49111;51.028;4.218;2022-11-23T19:06:35;15.20;;;3.83;;
62911;SDS011;49111;51.028;4.218;2022-11-23T19:09:01;18.33;;;6.13;;
62911;SDS011;49111;51.028;4.218;2022-11-23T19:11:27;18.98;;;4.65;;
62911;SDS011;49111;51.028;4.218;2022-11-23T19:13:54;14.75;;;4.70;;
62911;SDS011;49111;51.028;4.218;2022-11-23T19:16:24;16.83;;;4.57;;
62911;SDS011;49111;51.028;4.218;2022-11-23T19:18:53;14.02;;;4.40;;
62911;SDS011;49111;51.028;4.218;2022-11-23T19:21:21;14.23;;;4.45;;
62911;SDS011;49111;51.028;4.218;2022-11-23T19:23:49;17.80;;;5.80;;
62911;SDS011;49111;51.028;4.218;2022-11-23T19:26:16;14.48;;;3.58;;
